createdAt,value
2019-03-15T00:00:40.308Z,8.81
2019-03-15T00:01:40.301Z,8.80
2019-03-15T00:02:40.287Z,8.80
2019-03-15T00:03:40.288Z,8.80
2019-03-15T00:04:40.412Z,8.81
2019-03-15T00:05:40.256Z,8.81
2019-03-15T00:06:40.246Z,8.80
2019-03-15T00:07:41.242Z,8.82
2019-03-15T00:08:40.224Z,8.82
2019-03-15T00:09:40.223Z,8.84
2019-03-15T00:10:40.203Z,8.85
2019-03-15T00:11:40.193Z,8.85
2019-03-15T00:12:40.183Z,8.88
2019-03-15T00:13:40.171Z,8.90
2019-03-15T00:14:40.160Z,8.91
2019-03-15T00:15:40.159Z,8.92
2019-03-15T00:16:40.140Z,8.93
2019-03-15T00:17:40.127Z,8.96
2019-03-15T00:18:40.116Z,8.96
2019-03-15T00:19:40.106Z,8.97
2019-03-15T00:20:40.094Z,8.98
2019-03-15T00:21:40.099Z,9.00
2019-03-15T00:22:40.073Z,9.00
2019-03-15T00:23:40.061Z,9.02
2019-03-15T00:24:40.163Z,9.03
2019-03-15T00:25:40.056Z,9.06
2019-03-15T00:26:40.029Z,9.07
2019-03-15T00:27:40.031Z,9.09
2019-03-15T00:28:40.073Z,9.11
2019-03-15T00:29:39.997Z,9.13
2019-03-15T00:30:39.986Z,9.16
2019-03-15T00:31:39.976Z,9.18
2019-03-15T00:32:39.965Z,9.19
2019-03-15T00:33:39.965Z,9.21
2019-03-15T00:34:39.942Z,9.23
2019-03-15T00:35:39.934Z,9.23
2019-03-15T00:36:39.922Z,9.25
2019-03-15T00:37:39.911Z,9.26
2019-03-15T00:38:39.901Z,9.27
2019-03-15T00:39:39.899Z,9.27
2019-03-15T00:40:39.880Z,9.29
2019-03-15T00:41:39.866Z,9.28
2019-03-15T00:42:39.857Z,9.30
2019-03-15T00:43:39.847Z,9.31
2019-03-15T00:44:39.848Z,9.30
2019-03-15T00:45:39.834Z,9.29
2019-03-15T00:46:39.812Z,9.27
2019-03-15T00:47:39.801Z,9.26
2019-03-15T00:48:39.790Z,9.25
2019-03-15T00:49:39.780Z,9.24
2019-03-15T00:50:39.768Z,9.22
2019-03-15T00:51:39.768Z,9.22
2019-03-15T00:52:39.748Z,9.18
2019-03-15T00:53:39.735Z,9.18
2019-03-15T00:54:39.805Z,9.15
2019-03-15T00:55:39.719Z,9.16
2019-03-15T00:56:39.706Z,9.15
2019-03-15T00:57:39.702Z,9.14
2019-03-15T00:58:39.681Z,9.13
2019-03-15T00:59:39.670Z,9.13
2019-03-15T01:00:39.659Z,9.12
2019-03-15T01:01:39.648Z,9.12
2019-03-15T01:02:39.648Z,9.10
2019-03-15T01:03:39.716Z,9.10
2019-03-15T01:04:39.617Z,9.09
2019-03-15T01:05:39.607Z,9.09
2019-03-15T01:06:39.598Z,9.08
2019-03-15T01:07:39.584Z,9.07
2019-03-15T01:08:39.571Z,9.06
2019-03-15T01:09:39.574Z,9.07
2019-03-15T01:10:39.549Z,9.06
2019-03-15T01:11:39.539Z,9.07
2019-03-15T01:12:39.528Z,9.07
2019-03-15T01:13:39.518Z,9.08
2019-03-15T01:14:39.586Z,9.09
2019-03-15T01:15:39.512Z,9.09
2019-03-15T01:16:39.486Z,9.12
2019-03-15T01:17:39.474Z,9.12
2019-03-15T01:18:39.466Z,9.13
2019-03-15T01:19:39.451Z,9.15
2019-03-15T01:20:39.441Z,9.16
2019-03-15T01:21:39.440Z,9.18
2019-03-15T01:22:39.418Z,9.20
2019-03-15T01:23:39.408Z,9.21
2019-03-15T01:24:39.397Z,9.23
2019-03-15T01:25:39.389Z,9.25
2019-03-15T01:26:39.380Z,9.26
2019-03-15T01:27:39.377Z,9.27
2019-03-15T01:28:39.353Z,9.29
2019-03-15T01:29:39.342Z,9.33
2019-03-15T01:30:39.332Z,9.32
2019-03-15T01:31:39.320Z,9.33
2019-03-15T01:32:39.309Z,9.33
2019-03-15T01:33:39.311Z,9.33
2019-03-15T01:34:39.289Z,9.34
2019-03-15T01:35:39.277Z,9.34
2019-03-15T01:36:39.266Z,9.33
2019-03-15T01:37:39.256Z,9.33
2019-03-15T01:38:39.246Z,9.33
2019-03-15T01:39:39.249Z,9.33
2019-03-15T01:40:39.222Z,9.33
2019-03-15T01:41:39.210Z,9.34
2019-03-15T01:42:39.202Z,9.34
2019-03-15T01:43:39.190Z,9.34
2019-03-15T01:44:39.178Z,9.34
2019-03-15T01:45:39.178Z,9.34
2019-03-15T01:46:39.157Z,9.33
2019-03-15T01:47:39.147Z,9.35
2019-03-15T01:48:39.135Z,9.33
2019-03-15T01:49:39.124Z,9.32
2019-03-15T01:50:39.116Z,9.31
2019-03-15T01:51:39.113Z,9.29
2019-03-15T01:52:39.093Z,9.30
2019-03-15T01:53:39.081Z,9.26
2019-03-15T01:54:39.069Z,9.26
2019-03-15T01:55:39.063Z,9.25
2019-03-15T01:56:39.047Z,9.23
2019-03-15T01:57:39.046Z,9.24
2019-03-15T01:58:39.027Z,9.23
2019-03-15T01:59:39.015Z,9.24
2019-03-15T02:00:39.004Z,9.24
2019-03-15T02:01:38.994Z,9.25
2019-03-15T02:02:38.983Z,9.26
2019-03-15T02:03:39.587Z,9.27
2019-03-15T02:04:38.961Z,9.26
2019-03-15T02:05:38.949Z,9.26
2019-03-15T02:06:38.938Z,9.30
2019-03-15T02:07:38.927Z,9.26
2019-03-15T02:08:38.921Z,9.27
2019-03-15T02:09:38.914Z,9.27
2019-03-15T02:10:38.897Z,9.26
2019-03-15T02:11:38.886Z,9.25
2019-03-15T02:12:39.091Z,9.24
2019-03-15T02:13:38.862Z,9.24
2019-03-15T02:14:38.850Z,9.23
2019-03-15T02:15:38.852Z,9.23
2019-03-15T02:16:38.829Z,9.22
2019-03-15T02:17:38.820Z,9.22
2019-03-15T02:18:38.806Z,9.21
2019-03-15T02:19:38.796Z,9.20
2019-03-15T02:20:38.785Z,9.19
2019-03-15T02:21:38.787Z,9.17
2019-03-15T02:22:38.766Z,9.14
2019-03-15T02:23:38.753Z,9.14
2019-03-15T02:24:38.743Z,9.12
2019-03-15T02:25:38.730Z,9.10
2019-03-15T02:26:38.718Z,9.10
2019-03-15T02:27:38.719Z,9.07
2019-03-15T02:28:38.698Z,9.07
2019-03-15T02:29:38.687Z,9.05
2019-03-15T02:30:38.677Z,9.02
2019-03-15T02:31:38.667Z,9.00
2019-03-15T02:32:39.359Z,9.01
2019-03-15T02:33:38.660Z,9.00
2019-03-15T02:34:38.637Z,8.99
2019-03-15T02:35:38.622Z,8.99
2019-03-15T02:36:40.154Z,9.00
2019-03-15T02:37:38.603Z,9.00
2019-03-15T02:38:38.591Z,8.99
2019-03-15T02:39:38.590Z,8.99
2019-03-15T02:40:38.930Z,8.99
2019-03-15T02:41:38.558Z,9.00
2019-03-15T02:42:38.550Z,9.01
2019-03-15T02:43:38.538Z,9.01
2019-03-15T02:44:39.183Z,9.02
2019-03-15T02:45:38.531Z,9.05
2019-03-15T02:46:38.505Z,9.03
2019-03-15T02:47:38.495Z,9.04
2019-03-15T02:48:38.493Z,9.05
2019-03-15T02:49:38.474Z,9.05
2019-03-15T02:50:38.467Z,9.06
2019-03-15T02:51:38.480Z,9.06
2019-03-15T02:52:38.442Z,9.06
2019-03-15T02:53:38.429Z,9.07
2019-03-15T02:54:38.418Z,9.07
2019-03-15T02:55:38.409Z,9.07
2019-03-15T02:56:38.399Z,9.11
2019-03-15T02:57:38.398Z,9.11
2019-03-15T02:58:38.380Z,9.13
2019-03-15T02:59:38.364Z,9.14
2019-03-15T03:00:38.355Z,9.16
2019-03-15T03:01:38.344Z,9.18
2019-03-15T03:02:38.339Z,9.20
2019-03-15T03:03:38.330Z,9.22
2019-03-15T03:04:38.365Z,9.23
2019-03-15T03:05:38.300Z,9.25
2019-03-15T03:06:38.293Z,9.26
2019-03-15T03:07:38.277Z,9.27
2019-03-15T03:08:38.268Z,9.27
2019-03-15T03:09:38.265Z,9.28
2019-03-15T03:10:38.246Z,9.30
2019-03-15T03:11:38.234Z,9.30
2019-03-15T03:12:38.222Z,9.32
2019-03-15T03:13:38.212Z,9.32
2019-03-15T03:14:38.212Z,9.31
2019-03-15T03:15:38.218Z,9.31
2019-03-15T03:16:38.179Z,9.31
2019-03-15T03:17:38.176Z,9.30
2019-03-15T03:18:38.160Z,9.29
2019-03-15T03:19:38.148Z,9.29
2019-03-15T03:20:38.136Z,9.26
2019-03-15T03:21:38.136Z,9.26
2019-03-15T03:22:38.113Z,9.27
2019-03-15T03:23:38.107Z,9.26
2019-03-15T03:24:38.107Z,9.27
2019-03-15T03:25:38.086Z,9.28
2019-03-15T03:26:38.071Z,9.29
2019-03-15T03:27:38.073Z,9.29
2019-03-15T03:28:38.048Z,9.30
2019-03-15T03:29:38.038Z,9.29
2019-03-15T03:30:38.028Z,9.30
2019-03-15T03:31:38.016Z,9.32
2019-03-15T03:32:38.054Z,9.31
2019-03-15T03:33:40.523Z,9.32
2019-03-15T03:34:40.448Z,9.33
2019-03-15T03:35:38.201Z,9.34
2019-03-15T03:36:37.960Z,9.33
2019-03-15T03:37:37.952Z,9.34
2019-03-15T03:38:39.086Z,9.35
2019-03-15T03:39:37.937Z,9.36
2019-03-15T03:40:37.916Z,9.37
2019-03-15T03:41:37.908Z,9.40
2019-03-15T03:42:37.895Z,9.39
2019-03-15T03:43:37.884Z,9.40
2019-03-15T03:44:37.873Z,9.39
2019-03-15T03:45:37.872Z,9.39
2019-03-15T03:46:37.852Z,9.38
2019-03-15T03:47:37.840Z,9.37
2019-03-15T03:48:37.830Z,9.37
2019-03-15T03:49:37.818Z,9.36
2019-03-15T03:50:37.807Z,9.34
2019-03-15T03:51:37.806Z,9.32
2019-03-15T03:52:37.786Z,9.31
2019-03-15T03:53:37.774Z,9.30
2019-03-15T03:54:37.764Z,9.27
2019-03-15T03:55:37.755Z,9.26
2019-03-15T03:56:37.742Z,9.25
2019-03-15T03:57:37.740Z,9.23
2019-03-15T03:58:37.720Z,9.22
2019-03-15T03:59:37.710Z,9.21
2019-03-15T04:00:37.697Z,9.20
2019-03-15T04:01:37.687Z,9.19
2019-03-15T04:02:37.676Z,9.18
2019-03-15T04:03:37.677Z,9.17
2019-03-15T04:04:37.659Z,9.16
2019-03-15T04:05:37.644Z,9.15
2019-03-15T04:06:37.633Z,9.15
2019-03-15T04:07:37.624Z,9.13
2019-03-15T04:08:37.610Z,9.12
2019-03-15T04:09:37.610Z,9.11
2019-03-15T04:10:37.589Z,9.10
2019-03-15T04:11:37.581Z,9.09
2019-03-15T04:12:37.567Z,9.08
2019-03-15T04:13:37.557Z,9.09
2019-03-15T04:14:37.545Z,9.08
2019-03-15T04:15:37.544Z,9.07
2019-03-15T04:16:37.523Z,9.06
2019-03-15T04:17:37.513Z,9.06
2019-03-15T04:18:37.505Z,9.06
2019-03-15T04:19:37.491Z,9.06
2019-03-15T04:20:37.483Z,9.06
2019-03-15T04:21:37.480Z,9.05
2019-03-15T04:22:37.459Z,9.04
2019-03-15T04:23:38.318Z,9.04
2019-03-15T04:24:37.439Z,9.04
2019-03-15T04:25:40.453Z,9.05
2019-03-15T04:26:37.416Z,9.07
2019-03-15T04:27:37.415Z,9.08
2019-03-15T04:28:37.395Z,9.09
2019-03-15T04:29:37.384Z,9.13
2019-03-15T04:30:37.373Z,9.15
2019-03-15T04:31:37.361Z,9.17
2019-03-15T04:32:37.350Z,9.18
2019-03-15T04:33:37.353Z,9.19
2019-03-15T04:34:37.342Z,9.22
2019-03-15T04:35:37.318Z,9.24
2019-03-15T04:36:37.307Z,9.24
2019-03-15T04:37:37.297Z,9.26
2019-03-15T04:38:37.285Z,9.28
2019-03-15T04:39:37.285Z,9.31
2019-03-15T04:40:37.264Z,9.32
2019-03-15T04:41:37.253Z,9.34
2019-03-15T04:42:37.242Z,9.35
2019-03-15T04:43:37.230Z,9.38
2019-03-15T04:44:37.221Z,9.38
2019-03-15T04:45:37.227Z,9.39
2019-03-15T04:46:37.199Z,9.41
2019-03-15T04:47:37.187Z,9.41
2019-03-15T04:48:37.177Z,9.42
2019-03-15T04:49:37.165Z,9.43
2019-03-15T04:50:37.154Z,9.45
2019-03-15T04:51:37.156Z,9.45
2019-03-15T04:52:37.132Z,9.43
2019-03-15T04:53:37.121Z,9.44
2019-03-15T04:54:37.112Z,9.44
2019-03-15T04:55:37.100Z,9.43
2019-03-15T04:56:37.088Z,9.43
2019-03-15T04:57:37.089Z,9.41
2019-03-15T04:58:37.074Z,9.40
2019-03-15T04:59:37.056Z,9.40
2019-03-15T05:00:37.045Z,9.38
2019-03-15T05:01:37.033Z,9.38
2019-03-15T05:02:37.022Z,9.38
2019-03-15T05:03:37.038Z,9.39
2019-03-15T05:04:37.000Z,9.37
2019-03-15T05:05:36.990Z,9.38
2019-03-15T05:06:36.979Z,9.39
2019-03-15T05:07:37.098Z,9.39
2019-03-15T05:08:36.957Z,9.39
2019-03-15T05:09:36.959Z,9.40
2019-03-15T05:10:36.935Z,9.40
2019-03-15T05:11:36.990Z,9.40
2019-03-15T05:12:36.913Z,9.42
2019-03-15T05:13:36.901Z,9.42
2019-03-15T05:14:36.891Z,9.45
2019-03-15T05:15:36.893Z,9.44
2019-03-15T05:16:36.871Z,9.46
2019-03-15T05:17:36.863Z,9.46
2019-03-15T05:18:36.848Z,9.48
2019-03-15T05:19:36.836Z,9.47
2019-03-15T05:20:36.827Z,9.48
2019-03-15T05:21:36.826Z,9.48
2019-03-15T05:22:36.803Z,9.49
2019-03-15T05:23:36.792Z,9.50
2019-03-15T05:24:36.781Z,9.50
2019-03-15T05:25:36.770Z,9.51
2019-03-15T05:26:36.759Z,9.50
2019-03-15T05:27:36.760Z,9.50
2019-03-15T05:28:36.738Z,9.50
2019-03-15T05:29:36.728Z,9.51
2019-03-15T05:30:36.717Z,9.51
2019-03-15T05:31:36.705Z,9.51
2019-03-15T05:32:36.698Z,9.50
2019-03-15T05:33:36.719Z,9.51
2019-03-15T05:34:36.673Z,9.51
2019-03-15T05:35:36.661Z,9.52
2019-03-15T05:36:36.651Z,9.52
2019-03-15T05:37:36.642Z,9.54
2019-03-15T05:38:36.628Z,9.54
2019-03-15T05:39:36.631Z,9.54
2019-03-15T05:40:36.606Z,9.54
2019-03-15T05:41:36.596Z,9.56
2019-03-15T05:42:36.584Z,9.55
2019-03-15T05:43:36.576Z,9.55
2019-03-15T05:44:36.564Z,9.55
2019-03-15T05:45:36.567Z,9.56
2019-03-15T05:46:36.542Z,9.56
2019-03-15T05:47:36.531Z,9.55
2019-03-15T05:48:36.521Z,9.55
2019-03-15T05:49:36.572Z,9.56
2019-03-15T05:50:36.620Z,9.57
2019-03-15T05:51:36.509Z,9.56
2019-03-15T05:52:36.475Z,9.56
2019-03-15T05:53:36.468Z,9.56
2019-03-15T05:54:36.456Z,9.56
2019-03-15T05:55:36.443Z,9.57
2019-03-15T05:56:36.431Z,9.56
2019-03-15T05:57:36.435Z,9.57
2019-03-15T05:58:36.414Z,9.55
2019-03-15T05:59:36.402Z,9.58
2019-03-15T06:00:36.390Z,9.55
2019-03-15T06:01:36.378Z,9.55
2019-03-15T06:02:36.367Z,9.55
2019-03-15T06:03:47.767Z,9.56
2019-03-15T06:04:37.425Z,9.57
2019-03-15T06:05:36.333Z,9.58
2019-03-15T06:06:36.346Z,9.58
2019-03-15T06:07:36.315Z,9.59
2019-03-15T06:08:36.331Z,9.59
2019-03-15T06:09:36.306Z,9.60
2019-03-15T06:10:36.279Z,9.61
2019-03-15T06:11:36.269Z,9.62
2019-03-15T06:12:36.258Z,9.63
2019-03-15T06:13:36.247Z,9.63
2019-03-15T06:14:36.236Z,9.65
2019-03-15T06:15:36.318Z,9.67
2019-03-15T06:16:36.214Z,9.67
2019-03-15T06:17:36.207Z,9.68
2019-03-15T06:18:36.195Z,9.68
2019-03-15T06:19:36.181Z,9.72
2019-03-15T06:20:36.170Z,9.76
2019-03-15T06:21:36.173Z,9.78
2019-03-15T06:22:36.148Z,9.81
2019-03-15T06:23:36.144Z,9.84
2019-03-15T06:24:36.126Z,9.86
2019-03-15T06:25:36.117Z,9.87
2019-03-15T06:26:36.104Z,9.88
2019-03-15T06:27:36.107Z,9.90
2019-03-15T06:28:36.084Z,9.91
2019-03-15T06:29:36.072Z,9.93
2019-03-15T06:30:36.063Z,9.92
2019-03-15T06:31:36.051Z,9.94
2019-03-15T06:32:36.042Z,9.95
2019-03-15T06:33:36.047Z,9.96
2019-03-15T06:34:39.219Z,9.95
2019-03-15T06:35:36.011Z,9.95
2019-03-15T06:36:35.999Z,9.97
2019-03-15T06:37:35.997Z,9.97
2019-03-15T06:38:35.976Z,9.97
2019-03-15T06:39:36.979Z,9.98
2019-03-15T06:40:35.960Z,10.00
2019-03-15T06:41:35.946Z,10.00
2019-03-15T06:42:35.937Z,10.03
2019-03-15T06:43:35.930Z,10.05
2019-03-15T06:44:37.500Z,10.09
2019-03-15T06:45:35.917Z,10.10
2019-03-15T06:46:35.898Z,10.12
2019-03-15T06:47:35.880Z,10.15
2019-03-15T06:48:35.871Z,10.17
2019-03-15T06:49:35.864Z,10.19
2019-03-15T06:50:35.845Z,10.24
2019-03-15T06:51:35.858Z,10.25
2019-03-15T06:52:35.831Z,10.28
2019-03-15T06:53:35.815Z,10.30
2019-03-15T06:54:35.807Z,10.32
2019-03-15T06:55:35.796Z,10.34
2019-03-15T06:56:35.781Z,10.36
2019-03-15T06:57:35.781Z,10.37
2019-03-15T06:58:35.769Z,10.39
2019-03-15T06:59:35.754Z,10.40
2019-03-15T07:00:35.739Z,10.43
2019-03-15T07:01:35.731Z,10.45
2019-03-15T07:02:35.718Z,10.46
2019-03-15T07:03:35.729Z,10.47
2019-03-15T07:04:35.696Z,10.48
2019-03-15T07:05:35.694Z,10.48
2019-03-15T07:06:35.673Z,10.49
2019-03-15T07:07:35.663Z,10.48
2019-03-15T07:08:35.656Z,10.47
2019-03-15T07:09:35.653Z,10.48
2019-03-15T07:10:35.631Z,10.47
2019-03-15T07:11:35.622Z,10.47
2019-03-15T07:12:35.618Z,10.48
2019-03-15T07:13:35.598Z,10.48
2019-03-15T07:14:35.589Z,10.49
2019-03-15T07:15:36.557Z,10.50
2019-03-15T07:16:38.083Z,10.49
2019-03-15T07:17:35.567Z,10.49
2019-03-15T07:18:35.750Z,10.50
2019-03-15T07:19:35.533Z,10.50
2019-03-15T07:20:35.524Z,10.52
2019-03-15T07:21:36.836Z,10.53
2019-03-15T07:22:35.502Z,10.52
2019-03-15T07:23:35.491Z,10.52
2019-03-15T07:24:35.480Z,10.53
2019-03-15T07:25:35.470Z,10.53
2019-03-15T07:26:35.459Z,10.55
2019-03-15T07:27:35.466Z,10.55
2019-03-15T07:28:35.438Z,10.56
2019-03-15T07:29:35.434Z,10.57
2019-03-15T07:30:35.417Z,10.57
2019-03-15T07:31:35.406Z,10.60
2019-03-15T07:32:35.396Z,10.61
2019-03-15T07:33:35.401Z,10.61
2019-03-15T07:34:35.373Z,10.63
2019-03-15T07:35:35.366Z,10.62
2019-03-15T07:36:37.264Z,10.62
2019-03-15T07:37:35.348Z,10.62
2019-03-15T07:38:35.332Z,10.63
2019-03-15T07:39:35.332Z,10.65
2019-03-15T07:40:35.310Z,10.65
2019-03-15T07:41:35.299Z,10.68
2019-03-15T07:42:35.288Z,10.68
2019-03-15T07:43:35.279Z,10.71
2019-03-15T07:44:35.268Z,10.72
2019-03-15T07:45:35.269Z,10.75
2019-03-15T07:46:35.252Z,10.77
2019-03-15T07:47:35.236Z,10.76
2019-03-15T07:48:35.226Z,10.77
2019-03-15T07:49:35.216Z,10.79
2019-03-15T07:50:35.204Z,10.79
2019-03-15T07:51:35.214Z,10.80
2019-03-15T07:52:35.183Z,10.81
2019-03-15T07:53:35.655Z,10.83
2019-03-15T07:54:38.195Z,10.83
2019-03-15T07:55:35.152Z,10.85
2019-03-15T07:56:35.143Z,10.85
2019-03-15T07:57:35.140Z,10.84
2019-03-15T07:58:35.119Z,10.84
2019-03-15T07:59:35.109Z,10.84
2019-03-15T08:00:35.098Z,10.85
2019-03-15T08:01:35.086Z,10.85
2019-03-15T08:02:35.076Z,10.85
2019-03-15T08:03:35.076Z,10.87
2019-03-15T08:04:36.080Z,10.90
2019-03-15T08:05:35.044Z,10.92
2019-03-15T08:06:36.364Z,10.94
2019-03-15T08:07:36.493Z,10.97
2019-03-15T08:08:35.140Z,10.97
2019-03-15T08:09:35.012Z,10.98
2019-03-15T08:10:34.994Z,10.98
2019-03-15T08:11:34.981Z,10.98
2019-03-15T08:12:34.969Z,10.99
2019-03-15T08:13:34.959Z,10.99
2019-03-15T08:14:34.950Z,10.99
2019-03-15T08:15:35.005Z,10.98
2019-03-15T08:16:34.930Z,10.98
2019-03-15T08:17:34.916Z,10.97
2019-03-15T08:18:34.907Z,10.96
2019-03-15T08:19:34.896Z,10.97
2019-03-15T08:20:34.885Z,10.99
2019-03-15T08:21:34.885Z,11.00
2019-03-15T08:22:34.864Z,11.00
2019-03-15T08:23:34.865Z,11.01
2019-03-15T08:24:36.605Z,11.00
2019-03-15T08:25:34.837Z,11.03
2019-03-15T08:26:34.822Z,11.03
2019-03-15T08:27:34.823Z,11.02
2019-03-15T08:28:34.800Z,11.02
2019-03-15T08:29:34.790Z,11.01
2019-03-15T08:30:34.782Z,11.01
2019-03-15T08:31:34.773Z,10.97
2019-03-15T08:32:34.759Z,10.95
2019-03-15T08:33:34.766Z,10.94
2019-03-15T08:34:34.738Z,10.95
2019-03-15T08:35:34.727Z,10.96
2019-03-15T08:36:34.715Z,10.98
2019-03-15T08:37:34.704Z,10.95
2019-03-15T08:38:46.628Z,10.94
2019-03-15T08:39:35.702Z,10.93
2019-03-15T08:40:34.673Z,10.92
2019-03-15T08:41:34.662Z,10.93
2019-03-15T08:42:34.942Z,10.94
2019-03-15T08:43:34.640Z,10.98
2019-03-15T08:44:34.631Z,11.00
2019-03-15T08:45:34.720Z,11.05
2019-03-15T08:46:34.608Z,11.07
2019-03-15T08:47:34.598Z,11.11
2019-03-15T08:48:34.586Z,11.14
2019-03-15T08:49:34.577Z,11.15
2019-03-15T08:50:34.567Z,11.18
2019-03-15T08:51:34.565Z,11.16
2019-03-15T08:52:34.544Z,11.18
2019-03-15T08:53:34.533Z,11.20
2019-03-15T08:54:34.523Z,11.20
2019-03-15T08:55:34.512Z,11.20
2019-03-15T08:56:34.555Z,11.20
2019-03-15T08:57:34.504Z,11.20
2019-03-15T08:58:34.480Z,11.21
2019-03-15T08:59:34.469Z,11.20
2019-03-15T09:00:34.459Z,11.21
2019-03-15T09:01:34.465Z,11.21
2019-03-15T09:02:34.438Z,11.23
2019-03-15T09:03:34.771Z,11.23
2019-03-15T09:04:34.415Z,11.25
2019-03-15T09:05:34.407Z,11.28
2019-03-15T09:06:34.395Z,11.29
2019-03-15T09:07:34.384Z,11.31
2019-03-15T09:08:37.222Z,11.32
2019-03-15T09:09:35.976Z,11.35
2019-03-15T09:10:34.352Z,11.36
2019-03-15T09:11:34.341Z,11.38
2019-03-15T09:12:34.330Z,11.36
2019-03-15T09:13:34.319Z,11.34
2019-03-15T09:14:34.311Z,11.31
2019-03-15T09:15:34.316Z,11.28
2019-03-15T09:16:34.289Z,11.26
2019-03-15T09:17:34.278Z,11.24
2019-03-15T09:18:34.332Z,11.22
2019-03-15T09:19:34.257Z,11.19
2019-03-15T09:20:34.246Z,11.23
2019-03-15T09:21:34.247Z,11.26
2019-03-15T09:22:34.224Z,11.25
2019-03-15T09:23:34.216Z,11.27
2019-03-15T09:24:34.204Z,11.29
2019-03-15T09:25:34.192Z,11.35
2019-03-15T09:26:34.182Z,11.39
2019-03-15T09:27:34.180Z,11.39
2019-03-15T09:28:34.160Z,11.41
2019-03-15T09:29:34.148Z,11.42
2019-03-15T09:30:34.137Z,11.49
2019-03-15T09:31:46.992Z,11.56
2019-03-15T09:32:35.127Z,11.59
2019-03-15T09:33:34.105Z,11.58
2019-03-15T09:34:34.094Z,11.54
2019-03-15T09:35:34.084Z,11.47
2019-03-15T09:36:34.186Z,11.43
2019-03-15T09:37:34.062Z,11.38
2019-03-15T09:38:34.063Z,11.35
2019-03-15T09:39:34.043Z,11.32
2019-03-15T09:40:34.031Z,11.28
2019-03-15T09:41:39.467Z,11.27
2019-03-15T09:42:35.007Z,11.29
2019-03-15T09:43:33.998Z,11.30
2019-03-15T09:44:37.330Z,11.35
2019-03-15T09:45:33.984Z,11.41
2019-03-15T09:46:33.966Z,11.46
2019-03-15T09:47:33.967Z,11.48
2019-03-15T09:48:33.944Z,11.51
2019-03-15T09:49:33.944Z,11.54
2019-03-15T09:50:49.746Z,11.56
2019-03-15T09:51:34.911Z,11.56
2019-03-15T09:52:33.900Z,11.59
2019-03-15T09:53:33.889Z,11.66
2019-03-15T09:54:33.882Z,11.69
2019-03-15T09:55:33.868Z,11.72
2019-03-15T09:56:33.866Z,11.77
2019-03-15T09:57:33.845Z,11.76
2019-03-15T09:58:33.835Z,11.77
2019-03-15T09:59:33.824Z,11.79
2019-03-15T10:00:33.816Z,11.80
2019-03-15T10:01:35.496Z,11.83
2019-03-15T10:02:33.801Z,11.84
2019-03-15T10:03:33.779Z,11.83
2019-03-15T10:04:36.045Z,11.84
2019-03-15T10:05:33.757Z,11.86
2019-03-15T10:06:33.748Z,11.89
2019-03-15T10:07:38.635Z,11.92
2019-03-15T10:08:34.742Z,11.98
2019-03-15T10:09:45.120Z,12.10
2019-03-15T10:10:34.702Z,12.17
2019-03-15T10:11:33.692Z,12.23
2019-03-15T10:12:33.681Z,12.25
2019-03-15T10:13:33.671Z,12.26
2019-03-15T10:14:33.681Z,12.26
2019-03-15T10:15:33.692Z,12.25
2019-03-15T10:16:33.638Z,12.27
2019-03-15T10:17:33.627Z,12.30
2019-03-15T10:18:33.616Z,12.29
2019-03-15T10:19:33.609Z,12.33
2019-03-15T10:20:33.609Z,12.34
2019-03-15T10:21:33.582Z,12.36
2019-03-15T10:22:33.573Z,12.37
2019-03-15T10:23:33.561Z,12.43
2019-03-15T10:24:33.552Z,12.51
2019-03-15T10:25:46.028Z,12.55
2019-03-15T10:26:34.539Z,12.54
2019-03-15T10:27:33.519Z,12.53
2019-03-15T10:28:33.511Z,12.58
2019-03-15T10:29:33.497Z,12.63
2019-03-15T10:30:33.489Z,12.64
2019-03-15T10:31:33.477Z,12.64
2019-03-15T10:32:33.476Z,12.59
2019-03-15T10:33:33.455Z,12.58
2019-03-15T10:34:35.661Z,12.58
2019-03-15T10:35:33.434Z,12.62
2019-03-15T10:36:34.724Z,12.71
2019-03-15T10:37:33.414Z,12.82
2019-03-15T10:38:33.411Z,12.93
2019-03-15T10:39:33.390Z,12.99
2019-03-15T10:40:33.379Z,13.02
2019-03-15T10:41:33.371Z,13.01
2019-03-15T10:42:33.359Z,12.96
2019-03-15T10:43:33.348Z,12.96
2019-03-15T10:44:33.355Z,13.06
2019-03-15T10:45:33.324Z,13.22
2019-03-15T10:46:33.314Z,13.41
2019-03-15T10:47:33.306Z,13.61
2019-03-15T10:48:33.291Z,13.71
2019-03-15T10:49:33.281Z,13.72
2019-03-15T10:50:33.283Z,13.69
2019-03-15T10:51:33.267Z,13.66
2019-03-15T10:52:33.249Z,13.65
2019-03-15T10:53:33.237Z,13.69
2019-03-15T10:54:33.226Z,13.78
2019-03-15T10:55:33.214Z,13.89
2019-03-15T10:56:33.216Z,14.04
2019-03-15T10:57:33.193Z,14.12
2019-03-15T10:58:33.182Z,14.19
2019-03-15T10:59:33.173Z,14.17
2019-03-15T11:00:33.159Z,14.12
2019-03-15T11:01:33.150Z,14.13
2019-03-15T11:02:33.158Z,14.26
2019-03-15T11:03:33.126Z,14.48
2019-03-15T11:04:33.116Z,14.73
2019-03-15T11:05:33.107Z,14.99
2019-03-15T11:06:33.094Z,15.19
2019-03-15T11:07:33.084Z,15.47
2019-03-15T11:08:33.091Z,15.71
2019-03-15T11:09:33.063Z,15.85
2019-03-15T11:10:33.054Z,15.86
2019-03-15T11:11:33.041Z,15.97
2019-03-15T11:12:33.030Z,16.04
2019-03-15T11:13:33.018Z,16.16
2019-03-15T11:14:33.026Z,16.32
2019-03-15T11:15:32.997Z,16.35
2019-03-15T11:16:33.000Z,16.44
2019-03-15T11:17:32.975Z,16.52
2019-03-15T11:18:32.963Z,16.58
2019-03-15T11:19:32.954Z,16.65
2019-03-15T11:20:32.952Z,16.76
2019-03-15T11:21:32.950Z,16.83
2019-03-15T11:22:32.919Z,16.84
2019-03-15T11:23:32.916Z,16.88
2019-03-15T11:24:32.899Z,16.85
2019-03-15T11:25:32.891Z,16.82
2019-03-15T11:26:32.891Z,16.80
2019-03-15T11:27:32.880Z,16.85
2019-03-15T11:28:32.857Z,16.91
2019-03-15T11:29:32.848Z,17.01
2019-03-15T11:30:32.834Z,17.05
2019-03-15T11:31:32.824Z,17.15
2019-03-15T11:32:32.823Z,17.31
2019-03-15T11:33:32.805Z,17.51
2019-03-15T11:34:32.791Z,17.64
2019-03-15T11:35:32.780Z,17.65
2019-03-15T11:36:32.774Z,17.57
2019-03-15T11:37:32.760Z,17.56
2019-03-15T11:38:32.757Z,17.48
2019-03-15T11:39:32.738Z,17.35
2019-03-15T11:40:32.728Z,17.31
2019-03-15T11:41:32.715Z,17.37
2019-03-15T11:42:32.704Z,17.37
2019-03-15T11:43:32.693Z,17.49
2019-03-15T11:44:32.695Z,17.48
2019-03-15T11:45:32.671Z,17.48
2019-03-15T11:46:32.660Z,17.62
2019-03-15T11:47:50.277Z,17.78
2019-03-15T11:48:33.722Z,17.94
2019-03-15T11:49:32.627Z,18.11
2019-03-15T11:50:32.728Z,18.23
2019-03-15T11:51:32.605Z,18.30
2019-03-15T11:52:32.594Z,18.44
2019-03-15T11:53:32.583Z,18.58
2019-03-15T11:54:32.572Z,18.68
2019-03-15T11:55:32.561Z,18.75
2019-03-15T11:56:32.562Z,18.79
2019-03-15T11:57:32.545Z,18.85
2019-03-15T11:58:32.531Z,18.91
2019-03-15T11:59:32.520Z,18.97
2019-03-15T12:00:32.508Z,19.02
2019-03-15T12:01:32.498Z,18.98
2019-03-15T12:02:32.496Z,18.95
2019-03-15T12:03:32.475Z,18.95
2019-03-15T12:04:32.468Z,18.99
2019-03-15T12:05:32.454Z,19.01
2019-03-15T12:06:32.444Z,19.00
2019-03-15T12:07:32.435Z,19.03
2019-03-15T12:08:32.433Z,19.04
2019-03-15T12:09:32.434Z,18.93
2019-03-15T12:10:32.401Z,18.81
2019-03-15T12:11:32.392Z,18.63
2019-03-15T12:12:32.380Z,18.48
2019-03-15T12:13:32.373Z,18.43
2019-03-15T12:14:40.973Z,18.40
2019-03-15T12:15:36.192Z,18.34
2019-03-15T12:16:32.347Z,18.23
2019-03-15T12:17:32.331Z,18.08
2019-03-15T12:18:32.315Z,17.89
2019-03-15T12:19:32.323Z,17.70
2019-03-15T12:20:32.304Z,17.51
2019-03-15T12:21:32.285Z,17.33
2019-03-15T12:22:32.272Z,17.20
2019-03-15T12:23:32.264Z,17.06
2019-03-15T12:24:32.251Z,16.93
2019-03-15T12:25:32.246Z,16.78
2019-03-15T12:26:40.197Z,16.63
2019-03-15T12:27:33.218Z,16.53
2019-03-15T12:28:32.211Z,16.45
2019-03-15T12:29:32.200Z,16.37
2019-03-15T12:30:32.190Z,16.35
2019-03-15T12:31:32.180Z,16.31
2019-03-15T12:32:32.172Z,16.32
2019-03-15T12:33:32.154Z,16.38
2019-03-15T12:34:32.147Z,16.43
2019-03-15T12:35:32.129Z,16.49
2019-03-15T12:36:32.149Z,16.51
2019-03-15T12:37:32.109Z,16.44
2019-03-15T12:38:32.108Z,16.32
2019-03-15T12:39:32.111Z,16.34
2019-03-15T12:40:32.074Z,16.37
2019-03-15T12:41:32.069Z,16.38
2019-03-15T12:42:32.052Z,16.39
2019-03-15T12:43:32.042Z,16.35
2019-03-15T12:44:32.048Z,16.30
2019-03-15T12:45:32.020Z,16.25
2019-03-15T12:46:32.010Z,16.22
2019-03-15T12:47:31.998Z,16.09
2019-03-15T12:48:31.987Z,15.95
2019-03-15T12:49:31.982Z,15.82
2019-03-15T12:50:31.985Z,15.73
2019-03-15T12:51:32.577Z,15.70
2019-03-15T12:52:45.864Z,15.68
2019-03-15T12:53:32.933Z,15.63
2019-03-15T12:54:31.925Z,15.55
2019-03-15T12:55:31.913Z,15.52
2019-03-15T12:56:31.913Z,15.49
2019-03-15T12:57:31.892Z,15.50
2019-03-15T12:58:31.881Z,15.47
2019-03-15T12:59:31.883Z,15.44
2019-03-15T13:00:31.859Z,15.37
2019-03-15T13:01:31.850Z,15.35
2019-03-15T13:02:31.848Z,15.28
2019-03-15T13:03:31.829Z,15.20
2019-03-15T13:04:31.816Z,15.12
2019-03-15T13:05:31.806Z,15.05